createdAt,value
2018-10-18T00:00:47.964Z,0.00
2018-10-18T00:01:47.904Z,0.00
2018-10-18T00:02:47.839Z,0.00
2018-10-18T00:03:47.777Z,0.00
2018-10-18T00:04:47.713Z,0.00
2018-10-18T00:05:47.668Z,0.00
2018-10-18T00:06:47.581Z,0.00
2018-10-18T00:07:47.527Z,0.00
2018-10-18T00:08:47.467Z,0.00
2018-10-18T00:09:47.396Z,0.00
2018-10-18T00:10:47.341Z,0.00
2018-10-18T00:11:47.264Z,0.00
2018-10-18T00:12:47.204Z,0.00
2018-10-18T00:13:47.147Z,0.00
2018-10-18T00:14:47.078Z,0.00
2018-10-18T00:15:47.018Z,0.00
2018-10-18T00:16:46.961Z,0.00
2018-10-18T00:17:46.890Z,0.00
2018-10-18T00:18:46.828Z,0.00
2018-10-18T00:19:46.761Z,0.00
2018-10-18T00:20:46.704Z,0.00
2018-10-18T00:21:46.640Z,0.00
2018-10-18T00:22:46.578Z,0.00
2018-10-18T00:23:46.510Z,0.00
2018-10-18T00:24:46.444Z,0.00
2018-10-18T00:25:46.379Z,0.00
2018-10-18T00:26:46.328Z,0.00
2018-10-18T00:27:46.265Z,0.00
2018-10-18T00:28:46.192Z,0.00
2018-10-18T00:29:46.131Z,0.00
2018-10-18T00:30:46.066Z,0.00
2018-10-18T00:31:46.002Z,0.00
2018-10-18T00:32:45.941Z,0.00
2018-10-18T00:33:45.875Z,0.00
2018-10-18T00:34:45.815Z,0.00
2018-10-18T00:35:45.748Z,0.00
2018-10-18T00:36:45.686Z,0.00
2018-10-18T00:37:45.630Z,0.00
2018-10-18T00:38:45.559Z,0.00
2018-10-18T00:39:45.495Z,0.00
2018-10-18T00:40:45.432Z,0.00
2018-10-18T00:41:45.367Z,0.00
2018-10-18T00:42:45.308Z,0.00
2018-10-18T00:43:45.316Z,0.00
2018-10-18T00:44:45.222Z,0.00
2018-10-18T00:45:45.133Z,0.00
2018-10-18T00:46:45.052Z,0.00
2018-10-18T00:47:44.989Z,0.00
2018-10-18T00:48:44.937Z,0.00
2018-10-18T00:49:44.861Z,0.00
2018-10-18T00:50:44.801Z,0.00
2018-10-18T00:51:44.739Z,0.00
2018-10-18T00:52:44.675Z,0.00
2018-10-18T00:53:44.616Z,0.00
2018-10-18T00:54:44.545Z,0.00
2018-10-18T00:55:44.480Z,0.00
2018-10-18T00:56:44.432Z,0.00
2018-10-18T00:57:44.355Z,0.00
2018-10-18T00:58:44.295Z,0.00
2018-10-18T00:59:44.224Z,0.00
2018-10-18T01:00:44.166Z,0.00
2018-10-18T01:01:44.106Z,0.00
2018-10-18T01:02:53.300Z,0.00
2018-10-18T01:04:37.313Z,0.00
2018-10-18T01:05:46.405Z,0.00
2018-10-18T01:07:30.481Z,0.00
2018-10-18T01:08:30.411Z,0.00
2018-10-18T01:09:30.352Z,0.00
2018-10-18T01:10:30.295Z,0.00
2018-10-18T01:11:30.220Z,0.00
2018-10-18T01:12:30.353Z,0.00
2018-10-18T01:13:30.092Z,0.00
2018-10-18T01:14:30.033Z,0.00
2018-10-18T01:15:29.969Z,0.00
2018-10-18T01:16:29.897Z,0.00
2018-10-18T01:17:29.841Z,0.00
2018-10-18T01:18:29.785Z,0.00
2018-10-18T01:19:29.709Z,0.00
2018-10-18T01:20:29.645Z,0.00
2018-10-18T01:21:29.583Z,0.00
2018-10-18T01:22:29.523Z,0.00
2018-10-18T01:23:29.456Z,0.00
2018-10-18T01:24:29.395Z,0.00
2018-10-18T01:25:29.330Z,0.00
2018-10-18T01:26:29.269Z,0.00
2018-10-18T01:27:29.203Z,0.00
2018-10-18T01:28:29.143Z,0.00
2018-10-18T01:29:29.071Z,0.00
2018-10-18T01:30:29.015Z,0.00
2018-10-18T01:31:28.955Z,0.00
2018-10-18T01:32:28.882Z,0.00
2018-10-18T01:33:28.821Z,0.00
2018-10-18T01:34:28.757Z,0.00
2018-10-18T01:35:28.692Z,0.00
2018-10-18T01:36:28.631Z,0.00
2018-10-18T01:37:28.564Z,0.00
2018-10-18T01:38:28.504Z,0.00
2018-10-18T01:39:28.448Z,0.00
2018-10-18T01:40:28.375Z,0.00
2018-10-18T01:41:28.319Z,0.00
2018-10-18T01:42:28.254Z,0.00
2018-10-18T01:43:28.191Z,0.00
2018-10-18T01:44:28.129Z,0.00
2018-10-18T01:45:28.056Z,0.00
2018-10-18T01:46:28.000Z,0.00
2018-10-18T01:47:27.946Z,0.00
2018-10-18T01:48:27.867Z,0.00
2018-10-18T01:49:27.807Z,0.00
2018-10-18T01:50:27.736Z,0.00
2018-10-18T01:51:27.679Z,0.00
2018-10-18T01:52:27.621Z,0.00
2018-10-18T01:53:27.548Z,0.00
2018-10-18T01:54:27.493Z,0.00
2018-10-18T01:55:27.419Z,0.00
2018-10-18T01:56:27.358Z,0.00
2018-10-18T01:57:27.298Z,0.00
2018-10-18T01:58:27.240Z,0.00
2018-10-18T01:59:27.173Z,0.00
2018-10-18T02:00:27.119Z,0.00
2018-10-18T02:01:27.037Z,0.00
2018-10-18T02:02:26.988Z,0.00
2018-10-18T02:03:26.909Z,0.00
2018-10-18T02:04:26.848Z,0.00
2018-10-18T02:05:26.803Z,0.00
2018-10-18T02:06:26.721Z,0.00
2018-10-18T02:07:26.659Z,0.00
2018-10-18T02:08:26.611Z,0.00
2018-10-18T02:09:26.531Z,0.00
2018-10-18T02:10:26.464Z,0.00
2018-10-18T02:11:26.409Z,0.00
2018-10-18T02:12:26.348Z,0.00
2018-10-18T02:13:26.337Z,0.00
2018-10-18T02:14:26.209Z,0.00
2018-10-18T02:15:26.148Z,0.00
2018-10-18T02:16:26.097Z,0.00
2018-10-18T02:17:26.027Z,0.00
2018-10-18T02:18:25.963Z,0.00
2018-10-18T02:19:25.893Z,0.00
2018-10-18T02:20:25.861Z,0.00
2018-10-18T02:21:25.767Z,0.00
2018-10-18T02:22:25.703Z,0.00
2018-10-18T02:23:25.640Z,0.00
2018-10-18T02:24:25.583Z,0.00
2018-10-18T02:25:25.512Z,0.00
2018-10-18T02:26:25.459Z,0.00
2018-10-18T02:27:25.380Z,0.00
2018-10-18T02:28:25.321Z,0.00
2018-10-18T02:29:25.264Z,0.00
2018-10-18T02:30:25.201Z,0.00
2018-10-18T02:31:25.143Z,0.00
2018-10-18T02:32:25.062Z,0.00
2018-10-18T02:33:25.002Z,0.00
2018-10-18T02:34:24.955Z,0.00
2018-10-18T02:35:24.874Z,0.00
2018-10-18T02:36:24.812Z,0.00
2018-10-18T02:37:24.747Z,0.00
2018-10-18T02:38:24.685Z,0.00
2018-10-18T02:39:24.627Z,0.00
2018-10-18T02:40:24.567Z,0.00
2018-10-18T02:41:24.503Z,0.00
2018-10-18T02:42:24.445Z,0.00
2018-10-18T02:43:24.362Z,0.00
2018-10-18T02:44:24.307Z,0.00
2018-10-18T02:45:24.244Z,0.00
2018-10-18T02:46:24.172Z,0.00
2018-10-18T02:47:24.113Z,0.00
2018-10-18T02:48:24.062Z,0.00
2018-10-18T02:49:23.983Z,0.00
2018-10-18T02:50:23.922Z,0.00
2018-10-18T02:51:23.857Z,0.00
2018-10-18T02:52:23.799Z,0.00
2018-10-18T02:53:23.730Z,0.00
2018-10-18T02:54:23.667Z,0.00
2018-10-18T02:55:23.613Z,0.00
2018-10-18T02:56:23.534Z,0.00
2018-10-18T02:57:23.478Z,0.00
2018-10-18T02:58:23.415Z,0.00
2018-10-18T02:59:23.341Z,0.00
2018-10-18T03:00:23.280Z,0.00
2018-10-18T03:01:23.236Z,0.00
2018-10-18T03:02:23.154Z,0.00
2018-10-18T03:03:23.090Z,0.00
2018-10-18T03:04:23.023Z,0.00
2018-10-18T03:05:22.963Z,0.00
2018-10-18T03:06:22.899Z,0.00
2018-10-18T03:07:22.836Z,0.00
2018-10-18T03:08:22.772Z,0.00
2018-10-18T03:09:22.703Z,0.00
2018-10-18T03:10:22.665Z,0.00
2018-10-18T03:11:22.591Z,0.00
2018-10-18T03:12:22.567Z,0.00
2018-10-18T03:13:22.454Z,0.00
2018-10-18T03:14:22.418Z,0.00
2018-10-18T03:15:22.324Z,0.00
2018-10-18T03:16:22.259Z,0.00
2018-10-18T03:17:22.196Z,0.00
2018-10-18T03:18:22.138Z,0.00
2018-10-18T03:19:22.077Z,0.00
2018-10-18T03:20:22.008Z,0.00
2018-10-18T03:21:21.942Z,0.00
2018-10-18T03:22:21.885Z,0.00
2018-10-18T03:23:21.822Z,0.00
2018-10-18T03:24:21.758Z,0.00
2018-10-18T03:25:21.681Z,0.00
2018-10-18T03:26:21.621Z,0.00
2018-10-18T03:27:21.559Z,0.00
2018-10-18T03:28:21.495Z,0.00
2018-10-18T03:29:21.434Z,0.00
2018-10-18T03:30:21.424Z,0.00
2018-10-18T03:31:21.307Z,0.00
2018-10-18T03:32:21.244Z,0.00
2018-10-18T03:33:21.174Z,0.00
2018-10-18T03:34:21.124Z,0.00
2018-10-18T03:35:21.048Z,0.00
2018-10-18T03:36:21.090Z,0.00
2018-10-18T03:37:20.924Z,0.00
2018-10-18T03:38:20.854Z,0.00
2018-10-18T03:39:20.814Z,0.00
2018-10-18T03:40:20.752Z,0.00
2018-10-18T03:41:20.674Z,0.00
2018-10-18T03:42:20.650Z,0.00
2018-10-18T03:43:20.536Z,0.00
2018-10-18T03:44:20.475Z,0.00
2018-10-18T03:45:20.409Z,0.00
2018-10-18T03:46:20.346Z,0.00
2018-10-18T03:47:20.288Z,0.00
2018-10-18T03:48:20.307Z,0.00
2018-10-18T03:49:20.161Z,0.00
2018-10-18T03:50:20.094Z,0.00
2018-10-18T03:51:20.022Z,0.00
2018-10-18T03:52:19.961Z,0.00
2018-10-18T03:53:19.908Z,0.00
2018-10-18T03:54:19.897Z,0.00
2018-10-18T03:55:19.771Z,0.00
2018-10-18T03:56:19.704Z,0.00
2018-10-18T03:57:19.641Z,0.00
2018-10-18T03:58:19.579Z,0.00
2018-10-18T03:59:19.514Z,0.00
2018-10-18T04:00:19.556Z,0.00
2018-10-18T04:01:19.391Z,0.00
2018-10-18T04:02:19.329Z,0.00
2018-10-18T04:03:19.271Z,0.00
2018-10-18T04:04:19.193Z,0.00
2018-10-18T04:05:19.129Z,0.00
2018-10-18T04:06:19.115Z,0.00
2018-10-18T04:07:19.005Z,0.00
2018-10-18T04:08:18.938Z,0.00
2018-10-18T04:09:18.876Z,0.00
2018-10-18T04:10:18.810Z,0.00
2018-10-18T04:11:18.745Z,0.00
2018-10-18T04:12:18.768Z,0.00
2018-10-18T04:13:18.692Z,0.00
2018-10-18T04:14:18.557Z,0.00
2018-10-18T04:15:18.501Z,0.00
2018-10-18T04:16:18.434Z,0.00
2018-10-18T04:17:18.366Z,0.00
2018-10-18T04:18:18.322Z,0.00
2018-10-18T04:19:18.234Z,0.00
2018-10-18T04:20:18.170Z,0.00
2018-10-18T04:21:18.111Z,0.00
2018-10-18T04:22:18.043Z,0.00
2018-10-18T04:23:17.984Z,0.00
2018-10-18T04:24:18.045Z,0.00
2018-10-18T04:25:17.858Z,0.00
2018-10-18T04:26:17.789Z,0.00
2018-10-18T04:27:17.718Z,0.00
2018-10-18T04:28:17.658Z,0.00
2018-10-18T04:29:17.603Z,0.00
2018-10-18T04:30:17.614Z,0.00
2018-10-18T04:31:17.466Z,0.00
2018-10-18T04:32:17.402Z,0.00
2018-10-18T04:33:17.338Z,0.00
2018-10-18T04:34:17.274Z,0.00
2018-10-18T04:35:17.214Z,0.00
2018-10-18T04:36:17.221Z,0.00
2018-10-18T04:37:17.091Z,0.00
2018-10-18T04:38:17.023Z,0.00
2018-10-18T04:39:16.962Z,0.00
2018-10-18T04:40:16.891Z,0.00
2018-10-18T04:41:16.827Z,0.00
2018-10-18T04:42:16.843Z,0.00
2018-10-18T04:43:16.700Z,0.00
2018-10-18T04:44:16.634Z,0.00
2018-10-18T04:45:16.569Z,0.00
2018-10-18T04:46:16.508Z,0.00
2018-10-18T04:47:16.590Z,0.00
2018-10-18T04:48:16.485Z,0.00
2018-10-18T04:49:16.323Z,0.00
2018-10-18T04:50:16.256Z,0.00
2018-10-18T04:51:16.186Z,0.00
2018-10-18T04:52:16.120Z,0.00
2018-10-18T04:53:16.056Z,0.00
2018-10-18T04:54:15.991Z,0.00
2018-10-18T04:55:16.015Z,0.00
2018-10-18T04:56:15.863Z,0.00
2018-10-18T04:57:15.798Z,0.00
2018-10-18T04:58:15.736Z,0.00
2018-10-18T04:59:15.673Z,0.00
2018-10-18T05:00:15.606Z,0.00
2018-10-18T05:01:15.684Z,0.00
2018-10-18T05:02:15.480Z,0.00
2018-10-18T05:03:15.423Z,0.00
2018-10-18T05:04:15.356Z,0.00
2018-10-18T05:05:15.294Z,0.00
2018-10-18T05:06:15.219Z,0.00
2018-10-18T05:07:15.170Z,0.00
2018-10-18T05:08:15.098Z,0.00
2018-10-18T05:09:15.030Z,0.00
2018-10-18T05:10:14.966Z,0.00
2018-10-18T05:11:14.970Z,0.00
2018-10-18T05:12:14.837Z,0.00
2018-10-18T05:13:14.839Z,0.00
2018-10-18T05:14:14.709Z,0.00
2018-10-18T05:15:14.646Z,0.00
2018-10-18T05:16:14.580Z,0.00
2018-10-18T05:17:14.525Z,4.00
2018-10-18T05:18:14.456Z,4.00
2018-10-18T05:19:14.491Z,0.00
2018-10-18T05:20:14.325Z,4.00
2018-10-18T05:21:14.262Z,0.00
2018-10-18T05:22:14.198Z,4.00
2018-10-18T05:23:14.134Z,4.00
2018-10-18T05:24:14.064Z,8.00
2018-10-18T05:25:14.079Z,8.00
2018-10-18T05:26:13.946Z,8.00
2018-10-18T05:27:13.877Z,12.00
2018-10-18T05:28:13.814Z,12.00
2018-10-18T05:29:13.802Z,16.00
2018-10-18T05:30:13.684Z,16.00
2018-10-18T05:31:13.656Z,24.00
2018-10-18T05:32:13.560Z,28.00
2018-10-18T05:33:13.492Z,32.00
2018-10-18T05:34:13.430Z,40.00
2018-10-18T05:35:13.363Z,44.00
2018-10-18T05:36:13.301Z,48.00
2018-10-18T05:37:13.312Z,52.00
2018-10-18T05:38:13.172Z,60.00
2018-10-18T05:39:13.109Z,64.00
2018-10-18T05:40:13.045Z,64.00
2018-10-18T05:41:12.979Z,72.00
2018-10-18T05:42:12.917Z,80.00
2018-10-18T05:43:12.923Z,84.00
2018-10-18T05:44:12.787Z,88.00
2018-10-18T05:45:12.722Z,96.00
2018-10-18T05:46:12.660Z,104.00
2018-10-18T05:47:12.656Z,116.00
2018-10-18T05:48:12.530Z,124.00
2018-10-18T05:49:12.601Z,136.00
2018-10-18T05:50:12.404Z,152.00
2018-10-18T05:51:12.338Z,164.00
2018-10-18T05:52:12.280Z,176.00
2018-10-18T05:53:12.297Z,192.00
2018-10-18T05:54:12.290Z,204.00
2018-10-18T05:55:12.129Z,216.00
2018-10-18T05:56:12.018Z,232.00
2018-10-18T05:57:11.964Z,248.00
2018-10-18T05:58:11.889Z,268.00
2018-10-18T05:59:11.828Z,284.00
2018-10-18T06:00:11.828Z,300.00
2018-10-18T06:01:11.749Z,312.00
2018-10-18T06:02:11.636Z,324.00
2018-10-18T06:03:11.572Z,336.00
2018-10-18T06:04:11.508Z,352.00
2018-10-18T06:05:11.441Z,356.00
2018-10-18T06:06:11.380Z,372.00
2018-10-18T06:07:11.377Z,380.00
2018-10-18T06:08:11.247Z,392.00
2018-10-18T06:09:11.190Z,404.00
2018-10-18T06:10:11.249Z,408.00
2018-10-18T06:11:11.057Z,420.00
2018-10-18T06:12:10.999Z,432.00
2018-10-18T06:13:10.991Z,444.00
2018-10-18T06:14:10.869Z,460.00
2018-10-18T06:15:10.809Z,476.00
2018-10-18T06:16:10.739Z,488.00
2018-10-18T06:17:10.678Z,504.00
2018-10-18T06:18:10.608Z,520.00
2018-10-18T06:19:10.634Z,536.00
2018-10-18T06:20:10.489Z,556.00
2018-10-18T06:21:10.424Z,568.00
2018-10-18T06:22:10.357Z,580.00
2018-10-18T06:23:10.348Z,584.00
2018-10-18T06:24:10.229Z,604.00
2018-10-18T06:25:10.190Z,628.00
2018-10-18T06:26:10.102Z,644.00
2018-10-18T06:27:10.043Z,656.00
2018-10-18T06:28:09.977Z,656.00
2018-10-18T06:29:09.971Z,648.00
2018-10-18T06:30:09.852Z,652.00
2018-10-18T06:31:09.851Z,660.00
2018-10-18T06:32:09.721Z,664.00
2018-10-18T06:33:09.700Z,672.00
2018-10-18T06:34:09.588Z,684.00
2018-10-18T06:35:09.588Z,676.00
2018-10-18T06:36:09.477Z,700.00
2018-10-18T06:37:09.460Z,728.00
2018-10-18T06:38:09.338Z,740.00
2018-10-18T06:39:09.294Z,748.00
2018-10-18T06:40:09.213Z,756.00
2018-10-18T06:41:09.235Z,764.00
2018-10-18T06:42:09.082Z,760.00
2018-10-18T06:43:09.094Z,792.00
2018-10-18T06:44:08.965Z,808.00
2018-10-18T06:45:08.901Z,808.00
2018-10-18T06:46:08.834Z,816.00
2018-10-18T06:47:08.878Z,808.00
2018-10-18T06:48:08.815Z,812.00
2018-10-18T06:49:08.751Z,828.00
2018-10-18T06:50:08.570Z,836.00
2018-10-18T06:51:08.509Z,848.00
2018-10-18T06:52:08.444Z,860.00
2018-10-18T06:53:08.383Z,868.00
2018-10-18T06:54:08.354Z,856.00
2018-10-18T06:55:08.260Z,856.00
2018-10-18T06:56:08.207Z,820.00
2018-10-18T06:57:08.132Z,884.00
2018-10-18T06:58:08.077Z,920.00
2018-10-18T06:59:08.003Z,944.00
2018-10-18T07:00:07.993Z,984.00
2018-10-18T07:01:07.875Z,1028.00
2018-10-18T07:02:07.819Z,1048.00
2018-10-18T07:03:07.743Z,1056.00
2018-10-18T07:04:07.681Z,1004.00
2018-10-18T07:05:07.627Z,1060.00
2018-10-18T07:06:07.596Z,1080.00
2018-10-18T07:07:07.498Z,1080.00
2018-10-18T07:08:07.429Z,1104.00
2018-10-18T07:09:07.368Z,1036.00
2018-10-18T07:10:07.300Z,1100.00
2018-10-18T07:11:07.330Z,964.00
2018-10-18T07:12:07.221Z,1048.00
2018-10-18T07:13:07.109Z,1108.00
2018-10-18T07:14:07.052Z,1076.00
2018-10-18T07:15:06.990Z,1044.00
2018-10-18T07:16:06.924Z,1004.00
2018-10-18T07:17:06.862Z,888.00
2018-10-18T07:18:06.846Z,836.00
2018-10-18T07:19:06.732Z,900.00
2018-10-18T07:20:06.671Z,916.00
2018-10-18T07:21:06.616Z,920.00
2018-10-18T07:22:06.540Z,952.00
2018-10-18T07:23:06.480Z,976.00
2018-10-18T07:24:06.463Z,932.00
2018-10-18T07:25:06.362Z,916.00
2018-10-18T07:26:06.293Z,980.00
2018-10-18T07:27:06.231Z,980.00
2018-10-18T07:28:06.172Z,952.00
2018-10-18T07:29:06.096Z,912.00
2018-10-18T07:30:06.051Z,944.00
2018-10-18T07:31:05.972Z,924.00
2018-10-18T07:32:05.913Z,940.00
2018-10-18T07:33:05.849Z,948.00
2018-10-18T07:34:05.799Z,944.00
2018-10-18T07:35:05.840Z,960.00
2018-10-18T07:36:05.687Z,992.00
2018-10-18T07:37:05.594Z,1032.00
2018-10-18T07:38:05.537Z,1040.00
2018-10-18T07:39:05.471Z,952.00
2018-10-18T07:40:05.426Z,952.00
2018-10-18T07:41:05.361Z,1012.00
2018-10-18T07:42:05.335Z,1028.00
2018-10-18T07:43:05.217Z,1028.00
2018-10-18T07:44:05.161Z,1076.00
2018-10-18T07:45:05.100Z,1120.00
2018-10-18T07:46:05.032Z,1212.00
2018-10-18T07:47:04.968Z,1184.00
2018-10-18T07:48:05.000Z,1244.00
2018-10-18T07:49:04.843Z,1256.00
2018-10-18T07:50:04.797Z,1228.00
2018-10-18T07:51:04.712Z,1244.00
2018-10-18T07:52:04.654Z,1252.00
2018-10-18T07:53:04.680Z,1288.00
2018-10-18T07:54:04.594Z,1300.00
2018-10-18T07:55:04.467Z,1296.00
2018-10-18T07:56:04.405Z,1280.00
2018-10-18T07:57:04.333Z,1240.00
2018-10-18T07:58:04.271Z,1220.00
2018-10-18T07:59:04.209Z,1128.00
2018-10-18T08:00:04.286Z,1180.00
2018-10-18T08:01:04.095Z,1356.00
2018-10-18T08:02:04.029Z,1320.00
2018-10-18T08:03:03.959Z,1252.00
2018-10-18T08:04:03.889Z,1228.00
2018-10-18T08:05:03.849Z,1260.00
2018-10-18T08:06:03.769Z,1228.00
2018-10-18T08:07:03.750Z,1172.00
2018-10-18T08:08:03.646Z,1140.00
2018-10-18T08:09:03.582Z,1152.00
2018-10-18T08:10:03.590Z,1196.00
2018-10-18T08:11:03.545Z,1272.00
2018-10-18T08:12:03.391Z,1296.00
2018-10-18T08:13:03.412Z,1416.00
2018-10-18T08:14:03.271Z,1432.00
2018-10-18T08:15:03.208Z,1320.00
2018-10-18T08:16:03.141Z,1288.00
2018-10-18T08:17:03.255Z,1380.00
2018-10-18T08:18:03.022Z,1320.00
2018-10-18T08:19:03.003Z,1408.00
2018-10-18T08:20:02.895Z,1484.00
2018-10-18T08:21:02.829Z,1460.00
2018-10-18T08:22:02.762Z,1344.00
2018-10-18T08:23:02.706Z,1416.00
2018-10-18T08:24:02.648Z,1384.00
2018-10-18T08:25:02.618Z,1344.00
2018-10-18T08:26:02.528Z,1348.00
2018-10-18T08:27:02.467Z,1376.00
2018-10-18T08:28:02.391Z,1328.00
2018-10-18T08:29:02.326Z,1380.00
2018-10-18T08:30:02.265Z,1364.00
2018-10-18T08:31:02.275Z,1376.00
2018-10-18T08:32:02.140Z,1316.00
2018-10-18T08:33:02.078Z,1388.00
2018-10-18T08:34:02.030Z,1428.00
2018-10-18T08:35:01.954Z,1440.00
2018-10-18T08:36:01.898Z,1452.00
2018-10-18T08:37:01.845Z,1452.00
2018-10-18T08:38:01.958Z,1408.00
2018-10-18T08:39:01.705Z,1360.00
2018-10-18T08:40:01.639Z,1264.00
2018-10-18T08:41:01.580Z,1400.00
2018-10-18T08:42:01.521Z,1340.00
2018-10-18T08:43:01.530Z,1392.00
2018-10-18T08:44:01.513Z,1400.00
2018-10-18T08:45:01.337Z,1292.00
2018-10-18T08:46:01.277Z,1408.00
2018-10-18T08:47:01.206Z,1408.00
2018-10-18T08:48:01.158Z,1504.00
2018-10-18T08:49:01.112Z,1496.00
2018-10-18T08:50:01.069Z,1460.00
2018-10-18T08:51:00.949Z,1356.00
2018-10-18T08:52:00.898Z,1240.00
2018-10-18T08:53:00.828Z,1464.00
2018-10-18T08:54:00.765Z,1412.00
2018-10-18T08:55:00.764Z,1380.00
2018-10-18T08:56:00.641Z,1384.00
2018-10-18T08:57:00.578Z,1552.00
2018-10-18T08:58:00.533Z,1540.00
2018-10-18T08:59:00.506Z,1544.00
2018-10-18T09:00:00.392Z,1544.00
2018-10-18T09:01:00.376Z,1548.00
2018-10-18T09:02:00.281Z,1552.00
2018-10-18T09:03:00.208Z,1568.00
2018-10-18T09:04:00.152Z,1556.00
2018-10-18T09:05:00.085Z,1444.00
2018-10-18T09:06:00.038Z,1312.00
2018-10-18T09:06:59.965Z,1364.00
2018-10-18T09:07:59.898Z,1504.00
2018-10-18T09:08:59.859Z,1600.00
2018-10-18T09:09:59.774Z,1600.00
2018-10-18T09:10:59.711Z,1616.00
2018-10-18T09:11:59.670Z,1616.00
2018-10-18T09:12:59.667Z,1604.00
2018-10-18T09:13:59.526Z,1560.00
2018-10-18T09:14:59.466Z,1452.00
2018-10-18T09:15:59.453Z,1628.00
2018-10-18T09:16:59.339Z,1620.00
2018-10-18T09:17:59.284Z,1548.00
2018-10-18T09:18:59.242Z,1524.00
2018-10-18T09:19:59.165Z,1504.00
2018-10-18T09:20:59.171Z,1580.00
2018-10-18T09:21:59.035Z,1580.00
2018-10-18T09:22:58.975Z,1584.00
2018-10-18T09:23:59.009Z,1492.00
2018-10-18T09:24:58.886Z,1432.00
2018-10-18T09:25:58.784Z,1544.00
2018-10-18T09:26:58.721Z,1572.00
2018-10-18T09:27:58.677Z,1528.00
2018-10-18T09:28:58.599Z,1472.00
2018-10-18T09:29:58.537Z,1576.00
2018-10-18T09:30:58.521Z,1592.00
2018-10-18T09:31:58.433Z,1608.00
2018-10-18T09:32:58.350Z,1612.00
2018-10-18T09:33:58.290Z,1604.00
2018-10-18T09:34:58.230Z,1552.00
2018-10-18T09:35:58.165Z,1556.00
2018-10-18T09:36:58.144Z,1612.00
2018-10-18T09:37:58.043Z,1676.00
2018-10-18T09:38:57.985Z,1684.00
2018-10-18T09:39:57.920Z,1688.00
2018-10-18T09:40:57.869Z,1660.00
2018-10-18T09:41:57.797Z,1652.00
2018-10-18T09:42:57.752Z,1536.00
2018-10-18T09:43:57.737Z,1532.00
2018-10-18T09:44:57.786Z,1572.00
2018-10-18T09:45:57.551Z,1644.00
2018-10-18T09:46:57.492Z,1632.00
2018-10-18T09:47:57.441Z,1584.00
2018-10-18T09:48:57.389Z,1588.00
2018-10-18T09:49:57.302Z,1620.00
2018-10-18T09:50:57.253Z,1604.00
2018-10-18T09:51:57.181Z,1548.00
2018-10-18T09:52:57.229Z,1548.00
2018-10-18T09:53:57.081Z,1568.00
2018-10-18T09:54:57.028Z,1568.00
2018-10-18T09:55:57.007Z,1564.00
2018-10-18T09:56:56.877Z,1576.00
2018-10-18T09:57:56.816Z,1596.00
2018-10-18T09:58:56.782Z,1604.00
2018-10-18T09:59:56.774Z,1612.00
2018-10-18T10:00:56.754Z,1580.00
2018-10-18T10:01:56.577Z,1576.00
2018-10-18T10:02:56.508Z,1560.00
2018-10-18T10:03:56.449Z,1552.00
2018-10-18T10:04:56.406Z,1516.00
2018-10-18T10:05:56.336Z,1488.00
2018-10-18T10:06:56.333Z,1592.00
2018-10-18T10:07:56.214Z,1592.00
2018-10-18T10:08:56.141Z,1560.00
2018-10-18T10:09:56.088Z,1604.00
2018-10-18T10:10:56.027Z,1604.00
2018-10-18T10:11:55.973Z,1604.00
2018-10-18T10:12:55.949Z,1588.00
2018-10-18T10:13:55.850Z,1556.00
2018-10-18T10:14:55.778Z,1504.00
2018-10-18T10:15:55.732Z,1500.00
2018-10-18T10:16:55.675Z,1512.00
2018-10-18T10:17:55.600Z,1504.00
2018-10-18T10:18:55.577Z,1492.00
2018-10-18T10:19:55.478Z,1520.00
2018-10-18T10:20:55.423Z,1568.00
2018-10-18T10:21:55.532Z,1540.00
2018-10-18T10:22:55.455Z,1540.00
2018-10-18T10:23:55.410Z,1552.00
2018-10-18T10:24:55.377Z,1532.00
2018-10-18T10:25:55.282Z,1528.00
2018-10-18T10:26:55.233Z,1504.00
2018-10-18T10:27:55.178Z,1476.00
2018-10-18T10:28:55.111Z,1432.00
2018-10-18T10:29:55.051Z,1448.00
2018-10-18T10:30:55.052Z,1492.00
2018-10-18T10:31:54.924Z,1496.00
2018-10-18T10:32:54.908Z,1500.00
2018-10-18T10:33:54.826Z,1476.00
2018-10-18T10:34:54.783Z,1488.00
2018-10-18T10:35:54.500Z,1452.00
2018-10-18T10:36:54.456Z,1532.00
2018-10-18T10:37:54.418Z,1524.00
2018-10-18T10:38:54.340Z,1516.00
2018-10-18T10:39:54.255Z,1496.00
2018-10-18T10:40:54.263Z,1484.00
2018-10-18T10:41:54.140Z,1488.00
2018-10-18T10:42:54.185Z,1468.00
2018-10-18T10:43:54.060Z,1480.00
2018-10-18T10:44:53.953Z,1500.00
2018-10-18T10:45:54.023Z,1484.00
2018-10-18T10:46:53.859Z,1388.00
2018-10-18T10:47:53.778Z,1412.00
2018-10-18T10:48:53.719Z,1416.00
2018-10-18T10:49:53.652Z,1456.00
2018-10-18T10:50:53.595Z,1468.00
2018-10-18T10:51:53.568Z,1472.00
2018-10-18T10:52:53.468Z,1496.00
2018-10-18T10:53:53.442Z,1504.00
2018-10-18T10:54:53.352Z,1468.00
2018-10-18T10:55:53.296Z,1460.00
2018-10-18T10:56:53.261Z,1448.00
2018-10-18T10:57:53.206Z,1412.00
2018-10-18T10:58:53.148Z,1380.00
2018-10-18T10:59:53.090Z,1380.00
2018-10-18T11:00:52.998Z,1352.00
2018-10-18T11:01:52.930Z,1336.00
2018-10-18T11:02:52.894Z,1340.00
2018-10-18T11:03:52.807Z,1308.00
2018-10-18T11:04:52.743Z,1340.00
2018-10-18T11:05:52.686Z,1364.00
2018-10-18T11:06:52.633Z,1376.00
2018-10-18T11:07:52.577Z,1380.00
2018-10-18T11:08:52.509Z,1372.00
2018-10-18T11:09:52.442Z,1348.00
2018-10-18T11:10:52.382Z,1348.00
2018-10-18T11:11:52.337Z,1344.00
2018-10-18T11:12:52.261Z,1304.00
2018-10-18T11:13:52.208Z,1232.00
2018-10-18T11:14:52.143Z,1208.00
2018-10-18T11:15:52.080Z,1224.00
2018-10-18T11:16:52.020Z,1228.00
2018-10-18T11:17:51.963Z,1208.00
2018-10-18T11:18:51.899Z,1224.00
2018-10-18T11:19:51.843Z,1252.00
2018-10-18T11:20:51.811Z,1248.00
2018-10-18T11:21:51.718Z,1236.00
2018-10-18T11:22:51.660Z,1232.00
2018-10-18T11:23:51.599Z,1216.00
2018-10-18T11:24:51.799Z,1220.00
2018-10-18T11:25:51.483Z,1192.00
2018-10-18T11:26:51.470Z,1184.00
2018-10-18T11:27:51.357Z,1200.00
2018-10-18T11:28:51.298Z,1204.00
2018-10-18T11:29:51.239Z,1200.00
2018-10-18T11:30:51.178Z,1196.00
2018-10-18T11:31:51.127Z,1212.00
2018-10-18T11:32:51.059Z,1200.00
2018-10-18T11:33:51.003Z,1188.00
2018-10-18T11:34:50.936Z,1204.00
2018-10-18T11:35:50.878Z,1232.00
2018-10-18T11:36:50.818Z,1252.00
2018-10-18T11:37:50.761Z,1256.00
2018-10-18T11:38:50.723Z,1252.00
2018-10-18T11:39:50.632Z,1268.00
2018-10-18T11:40:50.577Z,1260.00
2018-10-18T11:41:50.516Z,1264.00
2018-10-18T11:42:50.535Z,1264.00
2018-10-18T11:43:50.398Z,1264.00
2018-10-18T11:44:50.341Z,1256.00
2018-10-18T11:45:50.311Z,1256.00
2018-10-18T11:46:50.218Z,1244.00
2018-10-18T11:47:50.158Z,1196.00
2018-10-18T11:48:50.095Z,1136.00
2018-10-18T11:49:50.036Z,1148.00
2018-10-18T11:50:49.976Z,1180.00
2018-10-18T11:51:50.036Z,1212.00
2018-10-18T11:52:49.857Z,1200.00
2018-10-18T11:53:49.810Z,1196.00
2018-10-18T11:54:49.736Z,1200.00
2018-10-18T11:55:49.775Z,1216.00
2018-10-18T11:56:49.630Z,1196.00
2018-10-18T11:57:49.600Z,1140.00
2018-10-18T11:58:49.494Z,1164.00
2018-10-18T11:59:49.439Z,1188.00
2018-10-18T12:00:49.396Z,1212.00
2018-10-18T12:01:49.334Z,1212.00
2018-10-18T12:02:49.255Z,1212.00
2018-10-18T12:03:49.242Z,1216.00
2018-10-18T12:04:49.146Z,1204.00
2018-10-18T12:05:49.084Z,1228.00
2018-10-18T12:06:49.055Z,1232.00
2018-10-18T12:07:48.980Z,1224.00
2018-10-18T12:08:48.900Z,1216.00
2018-10-18T12:09:48.839Z,1212.00
2018-10-18T12:10:48.784Z,1188.00
2018-10-18T12:11:48.718Z,1176.00
2018-10-18T12:12:48.661Z,1184.00
2018-10-18T12:13:48.605Z,1176.00
2018-10-18T12:14:48.540Z,1168.00
2018-10-18T12:15:48.479Z,1160.00
2018-10-18T12:16:48.420Z,1168.00
2018-10-18T12:17:48.360Z,1176.00
2018-10-18T12:18:48.297Z,1172.00
2018-10-18T12:19:48.244Z,1172.00
2018-10-18T12:20:48.198Z,1168.00
2018-10-18T12:21:48.146Z,1172.00
2018-10-18T12:22:48.082Z,1172.00
2018-10-18T12:23:48.019Z,1168.00
2018-10-18T12:24:47.945Z,1180.00
2018-10-18T12:25:47.891Z,1184.00
2018-10-18T12:26:47.860Z,1184.00
2018-10-18T12:27:47.770Z,1224.00
2018-10-18T12:28:47.714Z,1220.00
2018-10-18T12:29:47.646Z,1216.00
2018-10-18T12:30:47.586Z,1216.00
2018-10-18T12:31:47.526Z,1212.00
2018-10-18T12:32:47.465Z,1216.00
2018-10-18T12:33:47.405Z,1220.00
2018-10-18T12:34:47.346Z,1216.00
2018-10-18T12:35:47.289Z,1228.00
2018-10-18T12:36:47.228Z,1224.00
2018-10-18T12:37:47.169Z,1252.00
2018-10-18T12:38:47.151Z,1268.00
2018-10-18T12:39:47.221Z,1292.00
2018-10-18T12:40:47.017Z,1288.00